Amsterdam, Montana
Current Conditions -  °F | °C
As of 11:56 AM on Thursday 27 Nov 2014 (Local Time) from KBZN Reporting Station
Broken Clouds Broken Clouds  
Wind Chill: 37°   Ceiling: 8000
Heat Index: 44°   Visibility: 10mi
Dew Point: 30°   Wind: 15mph
Humidity: 58%   Direction: 200°SSW
Pressure: 29.99"   Gusts: NA
Location:  45.7517°N, 111.347°W
Report Text: KBZN 271856Z 20013KT 10SM BKN080 07/M01 A2999 RMK AO2 SLP162 T00671011 $
Loading
Personal Weather Stations






























Interactive Weather Map New forecast layout! Learn more

10-Day Weather Forecast

Advertisements
Track Severe Weather on mobile